createdAt,value
2023-04-23T00:02:06.452Z,7.61
2023-04-23T00:04:36.915Z,7.63
2023-04-23T00:07:04.838Z,7.62
2023-04-23T00:09:32.977Z,7.66
2023-04-23T00:12:01.985Z,7.66
2023-04-23T00:14:29.254Z,7.64
2023-04-23T00:16:56.698Z,7.64
2023-04-23T00:19:23.882Z,7.60
2023-04-23T00:21:50.754Z,7.58
2023-04-23T00:24:17.727Z,7.59
2023-04-23T00:26:44.614Z,7.58
2023-04-23T00:29:11.608Z,7.57
2023-04-23T00:31:38.723Z,7.52
2023-04-23T00:34:05.628Z,7.62
2023-04-23T00:36:33.935Z,7.65
2023-04-23T00:39:01.139Z,7.67
2023-04-23T00:41:29.195Z,7.72
2023-04-23T00:43:57.655Z,7.73
2023-04-23T00:46:26.827Z,7.72
2023-04-23T00:48:55.305Z,7.70
2023-04-23T00:51:25.086Z,7.71
2023-04-23T00:53:52.496Z,7.72
2023-04-23T00:56:20.560Z,7.72
2023-04-23T00:58:47.540Z,7.74
2023-04-23T01:01:15.228Z,7.75
2023-04-23T01:03:43.491Z,7.76
2023-04-23T01:06:10.491Z,7.73
2023-04-23T01:08:39.018Z,7.71
2023-04-23T01:11:06.278Z,7.67
2023-04-23T01:13:34.466Z,7.66
2023-04-23T01:16:02.067Z,7.66
2023-04-23T01:18:29.885Z,7.64
2023-04-23T01:20:56.727Z,7.64
2023-04-23T01:23:23.938Z,7.65
2023-04-23T01:25:51.225Z,7.65
2023-04-23T01:28:18.535Z,7.70
2023-04-23T01:30:46.664Z,7.69
2023-04-23T01:33:13.919Z,7.74
2023-04-23T01:35:44.108Z,7.70
2023-04-23T01:38:13.568Z,7.65
2023-04-23T01:40:40.520Z,7.67
2023-04-23T01:43:08.005Z,7.64
2023-04-23T01:45:35.087Z,7.60
2023-04-23T01:48:02.177Z,7.57
2023-04-23T01:50:30.206Z,7.52
2023-04-23T01:52:57.598Z,7.53
2023-04-23T01:55:24.882Z,7.44
2023-04-23T01:57:51.762Z,7.42
2023-04-23T02:00:19.048Z,7.37
2023-04-23T02:02:46.508Z,7.34
2023-04-23T02:05:18.825Z,7.28
2023-04-23T02:07:47.188Z,7.25
2023-04-23T02:10:15.132Z,7.25
2023-04-23T02:12:42.729Z,7.25
2023-04-23T02:15:11.333Z,7.21
2023-04-23T02:17:40.155Z,7.17
2023-04-23T02:20:10.526Z,7.16
2023-04-23T02:22:39.592Z,7.21
2023-04-23T02:25:07.786Z,7.32
2023-04-23T02:27:35.483Z,7.38
2023-04-23T02:30:02.636Z,7.44
2023-04-23T02:32:29.845Z,7.52
2023-04-23T02:34:57.889Z,7.53
2023-04-23T02:37:24.890Z,7.60
2023-04-23T02:39:52.308Z,7.64
2023-04-23T02:42:19.482Z,7.65
2023-04-23T02:44:46.453Z,7.65
2023-04-23T02:47:13.395Z,7.68
2023-04-23T02:49:40.300Z,7.70
2023-04-23T02:52:07.397Z,7.65
2023-04-23T02:54:34.363Z,7.71
2023-04-23T02:57:01.733Z,7.78
2023-04-23T02:59:29.222Z,7.75
2023-04-23T03:01:56.443Z,7.75
2023-04-23T03:04:23.859Z,7.78
2023-04-23T03:06:51.211Z,7.82
2023-04-23T03:09:18.283Z,7.82
2023-04-23T03:11:45.212Z,7.83
2023-04-23T03:14:14.064Z,7.90
2023-04-23T03:16:41.120Z,7.94
2023-04-23T03:19:08.158Z,7.95
2023-04-23T03:21:35.075Z,7.98
2023-04-23T03:24:01.970Z,8.04
2023-04-23T03:26:29.038Z,8.07
2023-04-23T03:28:56.128Z,8.08
2023-04-23T03:31:23.350Z,8.10
2023-04-23T03:33:50.760Z,8.10
2023-04-23T03:36:24.176Z,8.10
2023-04-23T03:38:51.041Z,8.16
2023-04-23T03:41:18.907Z,8.17
2023-04-23T03:43:45.985Z,8.24
2023-04-23T03:46:20.128Z,8.29
2023-04-23T03:48:47.358Z,8.28
2023-04-23T03:51:22.590Z,8.33
2023-04-23T03:53:50.661Z,8.38
2023-04-23T03:56:41.696Z,8.40
2023-04-23T03:59:27.841Z,8.43
2023-04-23T04:01:59.088Z,8.43
2023-04-23T04:04:27.101Z,8.44
2023-04-23T04:06:56.032Z,8.49
2023-04-23T04:09:27.779Z,8.56
2023-04-23T04:11:55.547Z,8.59
2023-04-23T04:14:23.302Z,8.62
2023-04-23T04:16:50.910Z,8.62
2023-04-23T04:19:17.803Z,8.64
2023-04-23T04:21:44.700Z,8.62
2023-04-23T04:24:11.692Z,8.57
2023-04-23T04:26:38.493Z,8.49
2023-04-23T04:29:05.386Z,8.39
2023-04-23T04:31:32.482Z,8.36
2023-04-23T04:33:59.502Z,8.34
2023-04-23T04:36:27.326Z,8.29
2023-04-23T04:38:58.914Z,8.33
2023-04-23T04:41:26.148Z,8.27
2023-04-23T04:43:53.479Z,8.40
2023-04-23T04:46:21.186Z,8.49
2023-04-23T04:48:48.605Z,8.57
2023-04-23T04:51:16.118Z,8.56
2023-04-23T04:53:43.081Z,8.64
2023-04-23T04:56:09.966Z,8.70
2023-04-23T04:58:36.851Z,8.81
2023-04-23T05:01:04.178Z,8.97
2023-04-23T05:03:31.475Z,9.00
2023-04-23T05:05:59.018Z,9.12
2023-04-23T05:08:26.005Z,9.21
2023-04-23T05:10:54.364Z,9.22
2023-04-23T05:13:21.859Z,9.27
2023-04-23T05:15:48.826Z,9.32
2023-04-23T05:18:15.674Z,9.40
2023-04-23T05:20:43.009Z,9.46
2023-04-23T05:23:10.284Z,9.50
2023-04-23T05:25:37.115Z,9.55
2023-04-23T05:28:04.349Z,9.55
2023-04-23T05:30:31.533Z,9.53
2023-04-23T05:32:58.816Z,9.61
2023-04-23T05:35:25.961Z,9.65
2023-04-23T05:37:52.978Z,9.70
2023-04-23T05:40:19.910Z,9.69
2023-04-23T05:42:46.889Z,9.69
2023-04-23T05:45:13.944Z,9.77
2023-04-23T05:47:40.900Z,9.89
2023-04-23T05:50:08.194Z,10.00
2023-04-23T05:52:37.474Z,10.15
2023-04-23T05:55:04.799Z,10.20
2023-04-23T05:57:31.908Z,10.34
2023-04-23T05:59:59.117Z,10.34
2023-04-23T06:02:26.195Z,10.23
2023-04-23T06:04:53.555Z,10.23
2023-04-23T06:07:20.840Z,10.10
2023-04-23T06:09:47.704Z,10.07
2023-04-23T06:12:14.566Z,10.09
2023-04-23T06:14:41.660Z,10.07
2023-04-23T06:17:08.620Z,10.11
2023-04-23T06:19:35.565Z,10.23
2023-04-23T06:22:02.505Z,10.40
2023-04-23T06:24:30.305Z,10.60
2023-04-23T06:26:57.967Z,10.80
2023-04-23T06:29:26.381Z,10.94
2023-04-23T06:32:05.131Z,11.15
2023-04-23T06:34:32.165Z,11.34
2023-04-23T06:36:59.191Z,11.46
2023-04-23T06:39:26.430Z,11.54
2023-04-23T06:41:53.437Z,11.60
2023-04-23T06:44:34.970Z,11.51
2023-04-23T06:47:03.451Z,11.53
2023-04-23T06:49:31.030Z,11.80
2023-04-23T06:51:58.185Z,11.98
2023-04-23T06:54:25.754Z,12.13
2023-04-23T06:56:52.810Z,12.24
2023-04-23T06:59:19.871Z,12.24
2023-04-23T07:01:50.723Z,12.26
2023-04-23T07:04:17.758Z,12.15
2023-04-23T07:06:44.676Z,12.28
2023-04-23T07:09:11.726Z,12.45
2023-04-23T07:11:38.669Z,12.54
2023-04-23T07:14:06.486Z,12.48
2023-04-23T07:16:34.140Z,12.50
2023-04-23T07:19:02.465Z,12.48
2023-04-23T07:21:29.725Z,12.58
2023-04-23T07:23:59.833Z,12.61
2023-04-23T07:26:28.065Z,12.68
2023-04-23T07:28:55.058Z,12.79
2023-04-23T07:31:22.333Z,12.83
2023-04-23T07:33:49.335Z,12.59
2023-04-23T07:36:16.176Z,12.52
2023-04-23T07:38:43.303Z,12.60
2023-04-23T07:41:10.217Z,12.63
2023-04-23T07:43:38.739Z,12.67
2023-04-23T07:46:06.790Z,12.68
2023-04-23T07:48:36.661Z,12.63
2023-04-23T07:51:03.780Z,12.63
2023-04-23T07:53:30.684Z,12.78
2023-04-23T07:55:58.043Z,12.76
2023-04-23T07:58:25.883Z,12.80
2023-04-23T08:00:53.152Z,12.93
2023-04-23T08:03:20.242Z,13.06
2023-04-23T08:05:47.497Z,13.10
2023-04-23T08:08:14.411Z,13.22
2023-04-23T08:10:41.622Z,13.22
2023-04-23T08:13:08.842Z,13.15
2023-04-23T08:15:35.916Z,13.22
2023-04-23T08:18:04.471Z,13.38
2023-04-23T08:20:32.454Z,13.52
2023-04-23T08:22:59.623Z,13.72
2023-04-23T08:25:26.567Z,13.84
2023-04-23T08:27:53.426Z,13.90
2023-04-23T08:30:20.341Z,14.12
2023-04-23T08:32:51.336Z,14.27
2023-04-23T08:35:18.455Z,14.28
2023-04-23T08:37:46.234Z,14.29
2023-04-23T08:40:13.492Z,14.48
2023-04-23T08:42:51.193Z,14.46
2023-04-23T08:45:19.020Z,14.49
2023-04-23T08:47:46.021Z,14.69
2023-04-23T08:50:16.571Z,14.82
2023-04-23T08:52:50.566Z,14.89
2023-04-23T08:55:18.955Z,15.03
2023-04-23T08:57:46.726Z,15.14
2023-04-23T09:00:15.543Z,15.12
2023-04-23T09:02:46.004Z,15.31
2023-04-23T09:05:14.113Z,15.25
2023-04-23T09:07:41.402Z,15.12
2023-04-23T09:10:11.425Z,15.32
2023-04-23T09:12:40.482Z,15.52
2023-04-23T09:15:11.257Z,15.75
2023-04-23T09:17:44.217Z,15.78
2023-04-23T09:20:12.788Z,15.68
2023-04-23T09:22:47.967Z,15.48
2023-04-23T09:25:18.190Z,15.39
2023-04-23T09:27:46.479Z,15.15
2023-04-23T09:30:14.831Z,15.42
2023-04-23T09:32:43.933Z,15.68
2023-04-23T09:35:13.967Z,15.45
2023-04-23T09:37:48.992Z,15.42
2023-04-23T09:40:20.922Z,15.50
2023-04-23T09:42:55.992Z,15.91
2023-04-23T09:45:25.822Z,16.10
2023-04-23T09:47:55.532Z,16.08
2023-04-23T09:50:37.154Z,15.85
2023-04-23T09:53:08.482Z,16.02
2023-04-23T09:55:38.979Z,16.01
2023-04-23T09:58:10.887Z,16.08
2023-04-23T10:00:39.211Z,16.28
2023-04-23T10:03:07.855Z,16.31
2023-04-23T10:05:50.454Z,16.34
2023-04-23T10:08:28.137Z,16.44
2023-04-23T10:11:06.581Z,16.41
2023-04-23T10:13:38.116Z,16.39
2023-04-23T10:16:20.635Z,16.43
2023-04-23T10:18:51.518Z,16.63
2023-04-23T10:21:19.789Z,16.74
2023-04-23T10:23:50.134Z,16.75
2023-04-23T10:26:20.187Z,16.71
2023-04-23T10:28:49.258Z,16.95
2023-04-23T10:31:17.936Z,17.21
2023-04-23T10:33:58.614Z,17.21
2023-04-23T10:36:28.189Z,17.33
2023-04-23T10:38:59.006Z,17.57
2023-04-23T10:41:35.652Z,17.53
2023-04-23T10:44:07.302Z,17.15
2023-04-23T10:46:37.792Z,17.07
2023-04-23T10:49:14.769Z,17.20
2023-04-23T10:54:17.162Z,17.03
2023-04-23T10:56:44.266Z,16.98
2023-04-23T10:59:21.667Z,16.89
2023-04-23T11:01:50.773Z,16.91
2023-04-23T11:04:24.931Z,16.95
2023-04-23T11:06:53.289Z,17.19
2023-04-23T11:09:49.423Z,17.36
2023-04-23T11:12:29.954Z,17.34
2023-04-23T11:15:01.711Z,17.37
2023-04-23T11:17:31.711Z,17.46
2023-04-23T11:20:07.079Z,17.54
2023-04-23T11:22:39.153Z,17.64
2023-04-23T11:25:14.647Z,17.91
2023-04-23T11:27:43.722Z,17.99
2023-04-23T11:30:16.389Z,18.31
2023-04-23T11:32:49.634Z,18.05
2023-04-23T11:35:19.627Z,18.06
2023-04-23T11:37:50.718Z,18.41
2023-04-23T11:40:19.624Z,18.60
2023-04-23T11:42:51.336Z,18.63
2023-04-23T11:45:20.482Z,19.09
2023-04-23T11:47:51.030Z,19.41
2023-04-23T11:50:19.347Z,19.05
2023-04-23T11:52:46.881Z,18.80
2023-04-23T11:55:14.114Z,19.08
2023-04-23T11:57:45.390Z,19.12
2023-04-23T12:00:23.965Z,19.10
2023-04-23T12:02:59.748Z,19.12
2023-04-23T12:05:35.366Z,18.92
2023-04-23T12:08:19.655Z,19.12
2023-04-23T12:10:47.549Z,19.53
2023-04-23T12:13:19.512Z,19.75
2023-04-23T12:15:52.538Z,19.23
2023-04-23T12:18:19.925Z,18.98
2023-04-23T12:20:46.824Z,19.34
2023-04-23T12:23:13.920Z,19.55
2023-04-23T12:25:42.670Z,19.78
2023-04-23T12:28:10.145Z,19.80
2023-04-23T12:30:44.474Z,19.80
2023-04-23T12:33:12.063Z,19.57
2023-04-23T12:35:40.805Z,19.50
2023-04-23T12:38:08.324Z,19.67
2023-04-23T12:40:35.440Z,19.58
2023-04-23T12:43:02.407Z,19.85
2023-04-23T12:45:38.532Z,19.68
2023-04-23T12:48:05.535Z,19.54
2023-04-23T12:50:32.506Z,19.65
2023-04-23T12:52:59.545Z,19.71
2023-04-23T12:55:26.442Z,19.84
2023-04-23T12:57:53.447Z,19.52
2023-04-23T13:00:20.304Z,19.39
2023-04-23T13:02:47.320Z,19.29
2023-04-23T13:05:14.384Z,19.08
2023-04-23T13:07:42.575Z,19.10
2023-04-23T13:10:10.980Z,18.83
2023-04-23T13:12:37.901Z,18.93
2023-04-23T13:15:06.172Z,19.31
2023-04-23T13:17:33.043Z,19.44
2023-04-23T13:19:59.996Z,19.71
2023-04-23T13:22:29.170Z,20.23
2023-04-23T13:24:59.688Z,20.26
2023-04-23T13:27:29.098Z,20.37
2023-04-23T13:29:56.550Z,20.43
2023-04-23T13:32:28.765Z,20.20
2023-04-23T13:34:55.918Z,19.86
2023-04-23T13:37:24.006Z,19.69
2023-04-23T13:39:50.858Z,19.77
2023-04-23T13:42:17.786Z,20.08
2023-04-23T13:44:44.732Z,20.21
2023-04-23T13:47:11.916Z,20.52
2023-04-23T13:49:38.804Z,20.58
2023-04-23T13:52:07.166Z,20.71
2023-04-23T13:54:35.806Z,20.40
2023-04-23T13:57:03.349Z,20.38
2023-04-23T13:59:30.809Z,20.53
2023-04-23T14:01:57.752Z,20.28
2023-04-23T14:04:24.889Z,20.16
2023-04-23T14:06:52.237Z,20.05
2023-04-23T14:09:19.676Z,20.00
2023-04-23T14:11:46.826Z,20.19
2023-04-23T14:14:13.801Z,20.14
2023-04-23T14:16:40.695Z,20.01
2023-04-23T14:19:07.524Z,19.81
2023-04-23T14:21:36.254Z,19.72
2023-04-23T14:24:27.648Z,19.35
2023-04-23T14:26:54.540Z,19.18
2023-04-23T14:29:39.777Z,19.53
2023-04-23T14:32:07.641Z,19.84
2023-04-23T14:34:37.548Z,20.03
2023-04-23T14:37:04.852Z,20.55
2023-04-23T14:39:31.898Z,20.83
2023-04-23T14:41:58.967Z,20.65
2023-04-23T14:44:29.175Z,20.41
2023-04-23T14:46:56.621Z,20.39
2023-04-23T14:49:24.181Z,20.82
2023-04-23T14:51:55.911Z,20.57
2023-04-23T14:54:22.895Z,20.07
2023-04-23T14:56:51.332Z,19.94
2023-04-23T14:59:18.185Z,19.68
2023-04-23T15:01:45.224Z,19.49
2023-04-23T15:04:12.743Z,19.47
2023-04-23T15:06:40.597Z,19.49
2023-04-23T15:09:07.669Z,19.50
2023-04-23T15:11:34.846Z,19.51
2023-04-23T15:14:01.681Z,19.41
2023-04-23T15:19:10.139Z,19.33
2023-04-23T15:21:37.469Z,19.36
2023-04-23T15:24:04.800Z,19.37
2023-04-23T15:26:33.734Z,19.39
2023-04-23T15:29:00.871Z,19.48
2023-04-23T15:31:27.783Z,19.68
2023-04-23T15:33:54.652Z,19.64
2023-04-23T15:36:21.620Z,19.63
2023-04-23T15:38:48.485Z,19.29
2023-04-23T15:41:16.485Z,19.15
2023-04-23T15:43:43.399Z,18.85
2023-04-23T15:46:10.697Z,18.24
2023-04-23T15:48:37.689Z,17.81
2023-04-23T15:51:04.775Z,17.46
2023-04-23T15:53:31.694Z,17.29
2023-04-23T15:55:58.988Z,17.23
2023-04-23T15:58:25.814Z,17.24
2023-04-23T16:00:52.756Z,17.23
2023-04-23T16:03:20.038Z,17.17
2023-04-23T16:05:50.708Z,16.96
2023-04-23T16:08:17.920Z,16.75
2023-04-23T16:10:44.900Z,16.56
2023-04-23T16:13:11.865Z,16.45
2023-04-23T16:15:39.061Z,16.31
2023-04-23T16:18:06.541Z,16.13
2023-04-23T16:20:33.523Z,15.12
2023-04-23T16:23:01.488Z,14.19
2023-04-23T16:25:28.800Z,12.28
2023-04-23T16:27:56.187Z,11.55
2023-04-23T16:30:23.586Z,11.55
2023-04-23T16:32:50.553Z,11.84
2023-04-23T16:35:17.597Z,12.09
2023-04-23T16:37:44.640Z,12.32
2023-04-23T16:40:12.120Z,12.51
2023-04-23T16:42:39.199Z,12.67
2023-04-23T16:45:06.629Z,12.87
2023-04-23T16:47:33.774Z,12.76
2023-04-23T16:50:00.802Z,12.69
2023-04-23T16:52:27.750Z,12.64
2023-04-23T16:54:54.652Z,12.57
2023-04-23T16:57:21.676Z,12.37
2023-04-23T16:59:48.561Z,12.33
2023-04-23T17:02:15.487Z,12.26
2023-04-23T17:04:42.874Z,12.29
2023-04-23T17:07:10.812Z,12.27
2023-04-23T17:09:37.728Z,12.06
2023-04-23T17:12:04.784Z,12.06
2023-04-23T17:14:31.738Z,12.01
2023-04-23T17:16:59.082Z,11.93
2023-04-23T17:19:25.904Z,11.97
2023-04-23T17:21:53.139Z,12.05
2023-04-23T17:24:20.199Z,12.05
2023-04-23T17:26:48.149Z,12.07
2023-04-23T17:29:15.261Z,12.17
2023-04-23T17:31:42.210Z,12.17
2023-04-23T17:34:09.081Z,12.19
2023-04-23T17:36:36.002Z,12.17
2023-04-23T17:39:03.167Z,12.25
2023-04-23T17:41:30.073Z,12.24
2023-04-23T17:43:57.183Z,12.32
2023-04-23T17:46:24.449Z,12.34
2023-04-23T17:48:51.530Z,12.39
2023-04-23T17:51:19.061Z,12.41
2023-04-23T17:53:48.460Z,12.35
2023-04-23T17:56:16.208Z,12.47
2023-04-23T17:58:43.216Z,12.44
2023-04-23T18:01:11.599Z,12.42
2023-04-23T18:03:38.685Z,12.45
2023-04-23T18:06:08.603Z,12.47
2023-04-23T18:08:36.461Z,12.43
2023-04-23T18:11:04.612Z,12.37
2023-04-23T18:13:31.650Z,12.37
2023-04-23T18:15:58.799Z,12.33
2023-04-23T18:18:26.073Z,12.34
2023-04-23T18:20:53.238Z,12.39
2023-04-23T18:23:23.916Z,12.47
2023-04-23T18:25:50.928Z,12.43
2023-04-23T18:28:17.869Z,12.35
2023-04-23T18:30:45.025Z,12.39
2023-04-23T18:33:35.954Z,12.41
2023-04-23T18:36:11.490Z,12.47
2023-04-23T18:38:44.626Z,12.44
2023-04-23T18:41:11.658Z,12.42
2023-04-23T18:43:38.662Z,12.44
2023-04-23T18:46:05.682Z,12.43
2023-04-23T18:48:35.455Z,12.45
2023-04-23T18:51:21.516Z,12.43
2023-04-23T18:53:49.304Z,12.44
2023-04-23T18:56:16.243Z,12.40
2023-04-23T18:58:43.113Z,12.34
2023-04-23T19:01:10.564Z,12.35
2023-04-23T19:03:37.988Z,12.28
2023-04-23T19:06:07.878Z,12.22
2023-04-23T19:08:35.734Z,12.26
2023-04-23T19:11:03.362Z,12.31
2023-04-23T19:13:30.535Z,12.25
2023-04-23T19:15:57.696Z,12.21
2023-04-23T19:18:24.714Z,12.19
2023-04-23T19:20:52.748Z,12.05
2023-04-23T19:23:20.564Z,11.95
2023-04-23T19:25:48.318Z,12.03
2023-04-23T19:28:15.315Z,12.06
2023-04-23T19:30:42.412Z,12.08
2023-04-23T19:33:09.339Z,12.00
2023-04-23T19:35:39.404Z,11.96
2023-04-23T19:38:07.441Z,11.99
2023-04-23T19:40:34.601Z,12.04
2023-04-23T19:43:01.617Z,11.98
2023-04-23T19:45:30.172Z,11.98
2023-04-23T19:47:57.755Z,11.97
2023-04-23T19:50:26.120Z,11.98
2023-04-23T19:52:53.403Z,11.99
2023-04-23T19:55:22.547Z,11.90
2023-04-23T19:57:49.502Z,11.71
2023-04-23T20:00:16.897Z,11.73
2023-04-23T20:02:44.128Z,11.69
2023-04-23T20:05:11.331Z,11.69
2023-04-23T20:07:39.185Z,11.65
2023-04-23T20:10:06.971Z,11.61
2023-04-23T20:12:34.871Z,11.51
2023-04-23T20:15:02.318Z,11.55
2023-04-23T20:17:32.836Z,11.57
2023-04-23T20:20:01.991Z,11.56
2023-04-23T20:22:29.824Z,11.50
2023-04-23T20:24:57.536Z,11.41
2023-04-23T20:27:26.350Z,11.52
2023-04-23T20:29:53.430Z,11.51
2023-04-23T20:32:20.400Z,11.49
2023-04-23T20:34:47.330Z,11.49
2023-04-23T20:37:14.291Z,11.54
2023-04-23T20:39:41.909Z,11.53
2023-04-23T20:42:09.034Z,11.53
2023-04-23T20:44:36.375Z,11.57
2023-04-23T20:47:08.388Z,11.58
2023-04-23T20:49:35.636Z,11.53
2023-04-23T20:52:02.549Z,11.50
2023-04-23T20:54:29.358Z,11.53
2023-04-23T20:56:57.674Z,11.52
2023-04-23T20:59:24.664Z,11.53
2023-04-23T21:01:51.715Z,11.56
2023-04-23T21:04:18.745Z,11.56
2023-04-23T21:06:47.186Z,11.55
2023-04-23T21:09:14.226Z,11.58
2023-04-23T21:11:41.427Z,11.61
2023-04-23T21:14:08.847Z,11.55
2023-04-23T21:16:36.937Z,11.56
2023-04-23T21:19:05.012Z,11.60
2023-04-23T21:21:32.559Z,11.60
2023-04-23T21:24:00.898Z,11.62
2023-04-23T21:26:30.187Z,11.65
2023-04-23T21:28:57.168Z,11.69
2023-04-23T21:31:46.368Z,11.72
2023-04-23T21:34:16.539Z,11.74
2023-04-23T21:36:46.616Z,11.72
2023-04-23T21:39:13.922Z,11.55
2023-04-23T21:41:41.310Z,11.54
2023-04-23T21:44:08.783Z,11.54
2023-04-23T21:46:35.889Z,11.58
2023-04-23T21:49:02.762Z,11.61
2023-04-23T21:51:30.331Z,11.64
2023-04-23T21:53:57.550Z,11.65
2023-04-23T21:56:24.585Z,11.68
2023-04-23T21:58:51.521Z,11.70
2023-04-23T22:01:18.633Z,11.67
2023-04-23T22:03:47.026Z,11.66
2023-04-23T22:06:18.583Z,11.63
2023-04-23T22:08:46.705Z,11.61
2023-04-23T22:11:14.785Z,11.63
2023-04-23T22:13:41.649Z,11.63
2023-04-23T22:16:24.456Z,11.59
2023-04-23T22:18:55.515Z,11.55
2023-04-23T22:21:42.637Z,11.58
2023-04-23T22:24:09.650Z,11.54
2023-04-23T22:26:37.681Z,11.47
2023-04-23T22:29:04.799Z,11.51
2023-04-23T22:31:31.769Z,11.55
2023-04-23T22:33:58.892Z,11.56
2023-04-23T22:36:25.856Z,11.62
2023-04-23T22:38:52.683Z,11.60
2023-04-23T22:41:19.668Z,11.53
2023-04-23T22:43:46.838Z,11.50
2023-04-23T22:46:14.036Z,11.48
2023-04-23T22:48:44.823Z,11.50
2023-04-23T22:51:12.089Z,11.48
2023-04-23T22:53:39.123Z,11.46
2023-04-23T22:56:06.897Z,11.49
2023-04-23T22:58:33.881Z,11.44
2023-04-23T23:01:00.913Z,11.48
2023-04-23T23:03:27.912Z,11.50
2023-04-23T23:05:54.835Z,11.46
2023-04-23T23:08:21.993Z,11.52
2023-04-23T23:10:48.852Z,11.53
2023-04-23T23:13:15.773Z,11.44
2023-04-23T23:15:42.713Z,11.46
2023-04-23T23:18:09.639Z,11.48
2023-04-23T23:20:37.063Z,11.48
2023-04-23T23:23:03.956Z,11.48
2023-04-23T23:25:30.772Z,11.46
2023-04-23T23:27:57.615Z,11.53
2023-04-23T23:30:25.756Z,11.50
2023-04-23T23:32:52.665Z,11.51
2023-04-23T23:35:20.005Z,11.54
2023-04-23T23:37:47.077Z,11.49
2023-04-23T23:40:14.148Z,11.51
2023-04-23T23:42:41.059Z,11.49
2023-04-23T23:45:09.906Z,11.58
2023-04-23T23:47:37.145Z,11.64
2023-04-23T23:50:04.216Z,11.68
2023-04-23T23:52:31.221Z,11.71
2023-04-23T23:54:58.107Z,11.72
2023-04-23T23:57:25.169Z,11.79
2023-04-23T23:59:52.126Z,11.72
